Time;durP1;ratioP1;P1;durP2;ratioP2;P2;SDS_P1;SDS_P2;PMS_P1;PMS_P2;Temp;Humidity;BMP_temperature;BMP_pressure;BME280_temperature;BME280_humidity;BME280_pressure;Samples;Min_cycle;Max_cycle;Signal;HPM_P1;HPM_P2
2022/01/31 00:00:53;;;;;;;16.00;3.20;;;7.70;47.00;;;;;;5038475;28;20108;-64
2022/01/31 00:03:19;;;;;;;17.17;3.70;;;7.70;46.90;;;;;;5049158;28;20021;-64
2022/01/31 00:05:44;;;;;;;14.43;3.42;;;7.60;46.80;;;;;;5047350;28;20543;-65
2022/01/31 00:08:10;;;;;;;19.65;4.13;;;7.50;46.90;;;;;;5048583;28;20378;-65
2022/01/31 00:10:36;;;;;;;16.77;3.85;;;7.40;47.10;;;;;;5041701;28;20495;-64
2022/01/31 00:15:28;;;;;;;15.50;3.83;;;7.40;47.10;;;;;;5047979;28;20412;-64
2022/01/31 00:17:54;;;;;;;18.40;3.55;;;7.50;47.10;;;;;;5043872;28;20025;-64
2022/01/31 00:20:22;;;;;;;17.58;3.33;;;7.50;47.00;;;;;;5024223;28;20070;-64
2022/01/31 00:22:48;;;;;;;22.67;4.13;;;7.50;46.90;;;;;;5045407;28;20036;-65
2022/01/31 00:25:14;;;;;;;14.10;3.42;;;7.40;46.70;;;;;;5028405;28;20074;-64
2022/01/31 00:27:39;;;;;;;19.70;3.92;;;7.40;47.00;;;;;;5048042;28;20033;-64
2022/01/31 00:30:06;;;;;;;18.45;3.75;;;7.40;46.60;;;;;;5039250;28;20033;-64
2022/01/31 00:32:32;;;;;;;17.50;3.20;;;7.40;46.70;;;;;;5044584;28;20057;-64
2022/01/31 00:34:58;;;;;;;18.92;3.95;;;7.40;46.60;;;;;;5046176;28;20025;-64
2022/01/31 00:37:25;;;;;;;18.33;3.78;;;7.40;46.50;;;;;;5044639;28;20026;-64
2022/01/31 00:39:51;;;;;;;17.15;4.03;;;7.40;46.50;;;;;;5046983;28;20447;-64
2022/01/31 00:42:19;;;;;;;16.40;3.50;;;7.40;46.20;;;;;;5048473;28;20486;-63
2022/01/31 00:44:53;;;;;;;17.65;3.47;;;7.50;45.80;;;;;;5048003;28;20037;-64
2022/01/31 00:47:25;;;;;;;16.10;4.38;;;7.60;45.80;;;;;;5029930;28;20032;-64
2022/01/31 00:50:06;;;;;;;18.40;4.35;;;7.60;45.40;;;;;;5022268;28;20045;-65
2022/01/31 00:52:32;;;;;;;17.98;3.78;;;7.50;45.50;;;;;;5041912;28;20046;-65
2022/01/31 00:54:58;;;;;;;14.50;3.78;;;7.50;45.90;;;;;;5045986;28;20112;-65
2022/01/31 00:57:24;;;;;;;16.40;3.60;;;7.50;46.70;;;;;;5028522;28;20478;-64
2022/01/31 00:59:51;;;;;;;17.70;3.20;;;7.40;47.20;;;;;;5044391;28;20029;-65
2022/01/31 01:02:21;;;;;;;18.00;3.30;;;7.30;47.60;;;;;;5045159;28;20132;-63
2022/01/31 01:04:47;;;;;;;18.63;3.97;;;7.30;47.90;;;;;;5047355;28;20090;-63
2022/01/31 01:07:14;;;;;;;16.95;4.13;;;7.30;48.20;;;;;;5045689;28;20025;-63
2022/01/31 01:09:41;;;;;;;20.58;4.07;;;7.20;48.60;;;;;;5020525;28;20461;-63
2022/01/31 01:12:08;;;;;;;15.85;3.33;;;7.00;48.50;;;;;;5035678;28;20029;-64
2022/01/31 01:14:34;;;;;;;18.38;3.95;;;7.00;48.80;;;;;;5047817;28;20040;-64
2022/01/31 01:16:59;;;;;;;16.63;3.67;;;6.90;49.10;;;;;;5047250;28;20033;-64
2022/01/31 01:19:25;;;;;;;15.52;3.58;;;6.90;49.00;;;;;;5047378;28;20036;-63
2022/01/31 01:21:51;;;;;;;16.95;3.50;;;6.90;48.90;;;;;;5047456;28;20104;-66
2022/01/31 01:24:17;;;;;;;18.42;3.58;;;6.90;49.10;;;;;;5047232;28;20063;-66
2022/01/31 01:26:43;;;;;;;17.52;4.00;;;6.80;49.20;;;;;;5045655;28;20390;-64
2022/01/31 01:29:10;;;;;;;13.65;3.50;;;6.80;49.40;;;;;;5047508;28;20546;-64
2022/01/31 01:31:35;;;;;;;14.65;4.00;;;6.80;49.50;;;;;;5045788;28;20021;-65
2022/01/31 01:34:01;;;;;;;16.42;3.55;;;6.70;49.60;;;;;;5045029;28;20051;-65
2022/01/31 01:36:28;;;;;;;18.30;3.47;;;6.70;49.70;;;;;;5041193;28;20044;-63
2022/01/31 01:38:53;;;;;;;17.67;3.63;;;6.60;49.60;;;;;;5046607;28;20044;-66
2022/01/31 01:41:19;;;;;;;15.60;3.50;;;6.60;49.60;;;;;;5047728;28;20360;-63
2022/01/31 01:43:45;;;;;;;19.35;3.63;;;6.60;49.60;;;;;;5047972;28;20073;-63
2022/01/31 01:46:11;;;;;;;16.45;4.20;;;6.60;49.60;;;;;;5046329;28;20033;-64
2022/01/31 01:48:37;;;;;;;15.80;3.63;;;6.50;49.80;;;;;;5036465;28;20069;-64
2022/01/31 01:51:03;;;;;;;18.13;3.70;;;6.50;49.90;;;;;;5043729;28;20039;-64
2022/01/31 01:53:29;;;;;;;18.65;3.70;;;6.50;49.90;;;;;;5042943;28;20025;-64
2022/01/31 01:55:55;;;;;;;19.38;4.40;;;6.50;49.90;;;;;;5045267;28;20025;-63
2022/01/31 01:58:23;;;;;;;14.43;4.32;;;6.50;49.90;;;;;;5047307;28;20033;-64
2022/01/31 02:00:53;;;;;;;14.35;3.97;;;6.50;49.90;;;;;;5042606;28;20479;-65
2022/01/31 02:03:21;;;;;;;21.40;4.03;;;6.40;50.00;;;;;;5048013;28;20029;-64
2022/01/31 02:05:48;;;;;;;18.98;3.95;;;6.50;50.00;;;;;;5046901;28;20032;-65
2022/01/31 02:08:17;;;;;;;16.83;3.85;;;6.50;50.00;;;;;;5046664;28;20025;-65
2022/01/31 02:10:42;;;;;;;11.07;3.20;;;6.50;50.00;;;;;;5039840;28;20021;-65
2022/01/31 02:13:09;;;;;;;18.23;3.75;;;6.40;50.20;;;;;;5039693;28;20033;-65
2022/01/31 02:15:53;;;;;;;16.10;3.40;;;6.40;50.40;;;;;;5050125;28;20021;-64
2022/01/31 02:18:23;;;;;;;14.88;3.67;;;6.40;50.30;;;;;;5040552;28;20082;-64
2022/01/31 02:20:49;;;;;;;22.67;4.07;;;6.40;50.30;;;;;;5050072;28;20486;-64
2022/01/31 02:23:17;;;;;;;16.15;3.63;;;6.50;50.10;;;;;;5050143;28;20067;-65
2022/01/31 02:26:01;;;;;;;22.35;4.15;;;6.50;50.00;;;;;;5050908;28;20036;-64
2022/01/31 02:28:28;;;;;;;17.90;3.08;;;6.50;49.70;;;;;;5044053;28;20052;-65
2022/01/31 02:30:55;;;;;;;22.27;3.90;;;6.50;49.50;;;;;;5050865;28;20036;-64
2022/01/31 02:33:21;;;;;;;13.80;3.92;;;6.60;49.60;;;;;;5050919;28;20104;-65
2022/01/31 02:35:57;;;;;;;13.00;3.25;;;6.60;49.50;;;;;;5049459;28;20097;-64
2022/01/31 02:38:24;;;;;;;13.80;3.55;;;6.60;49.30;;;;;;5046506;28;20053;-65
2022/01/31 02:40:50;;;;;;;21.52;4.78;;;6.60;49.30;;;;;;5050476;28;20029;-65
2022/01/31 02:43:22;;;;;;;16.55;3.75;;;6.70;49.10;;;;;;5039790;28;20382;-65
2022/01/31 02:45:48;;;;;;;17.65;3.33;;;6.80;48.90;;;;;;5048538;28;20111;-65
2022/01/31 02:48:17;;;;;;;15.07;4.05;;;6.80;48.80;;;;;;5049514;28;20029;-64
2022/01/31 02:50:42;;;;;;;16.08;3.55;;;6.90;48.60;;;;;;5041623;28;20032;-64
2022/01/31 02:53:13;;;;;;;20.38;3.67;;;6.90;48.40;;;;;;5050082;28;20033;-64
2022/01/31 02:55:42;;;;;;;18.42;3.22;;;6.90;48.40;;;;;;5050396;28;20086;-64
2022/01/31 02:58:08;;;;;;;20.48;4.25;;;6.90;48.40;;;;;;5043481;28;20037;-65
2022/01/31 03:00:35;;;;;;;15.23;3.65;;;6.90;48.20;;;;;;5054302;27;20108;-64
2022/01/31 03:03:00;;;;;;;18.17;4.13;;;6.90;48.00;;;;;;5049740;28;20029;-65
2022/01/31 03:05:26;;;;;;;21.65;4.55;;;6.90;48.00;;;;;;5043573;28;20033;-64
2022/01/31 03:07:52;;;;;;;18.50;3.83;;;6.90;47.90;;;;;;5025378;28;20034;-64
2022/01/31 03:10:17;;;;;;;15.80;3.63;;;6.90;47.80;;;;;;5046160;28;20037;-65
2022/01/31 03:12:43;;;;;;;20.70;3.90;;;6.90;47.80;;;;;;5049949;28;20518;-64
2022/01/31 03:15:09;;;;;;;20.92;4.20;;;7.00;47.90;;;;;;5049106;27;20383;-65
2022/01/31 03:17:35;;;;;;;22.42;4.28;;;7.00;47.70;;;;;;5043420;28;20025;-65
2022/01/31 03:20:01;;;;;;;17.15;3.63;;;7.00;47.60;;;;;;5048351;28;20497;-66
2022/01/31 03:22:27;;;;;;;17.15;3.72;;;7.00;47.40;;;;;;5048175;28;20033;-65
2022/01/31 03:24:53;;;;;;;15.60;3.28;;;7.00;47.40;;;;;;5048154;28;20469;-65
2022/01/31 03:27:18;;;;;;;18.73;4.20;;;7.00;47.50;;;;;;5043015;28;20392;-65
2022/01/31 03:29:44;;;;;;;15.32;3.28;;;7.00;47.90;;;;;;5049877;28;20036;-65
2022/01/31 03:32:10;;;;;;;16.17;3.97;;;6.90;47.40;;;;;;5023092;28;20021;-65
2022/01/31 03:34:35;;;;;;;20.13;3.72;;;6.80;47.50;;;;;;5048419;28;20440;-65
2022/01/31 03:37:01;;;;;;;17.88;3.85;;;6.80;47.60;;;;;;5048707;28;20029;-64
2022/01/31 03:39:27;;;;;;;14.98;3.33;;;6.70;47.70;;;;;;5049835;28;20045;-63
2022/01/31 03:41:52;;;;;;;19.42;3.70;;;6.70;47.90;;;;;;5049244;28;20028;-64
2022/01/31 03:44:18;;;;;;;17.35;3.60;;;6.70;48.10;;;;;;5048855;28;20439;-64
2022/01/31 03:46:44;;;;;;;18.95;3.97;;;6.60;48.20;;;;;;5049149;28;20036;-64
2022/01/31 03:49:10;;;;;;;14.55;3.88;;;6.60;48.30;;;;;;5044512;28;20041;-64
2022/01/31 03:51:36;;;;;;;20.42;4.13;;;6.50;48.30;;;;;;5037076;28;20031;-64
2022/01/31 03:54:03;;;;;;;18.30;3.15;;;6.50;48.60;;;;;;5049725;28;20500;-68
2022/01/31 03:56:29;;;;;;;18.80;4.13;;;6.50;48.60;;;;;;5044375;28;20053;-65
2022/01/31 03:58:54;;;;;;;17.50;3.38;;;6.60;48.70;;;;;;5046583;28;20064;-65
2022/01/31 04:01:22;;;;;;;16.10;4.00;;;6.50;48.80;;;;;;5044695;28;20089;-64
2022/01/31 04:03:48;;;;;;;14.60;3.47;;;6.50;49.10;;;;;;5037987;28;20088;-64
2022/01/31 04:06:14;;;;;;;17.88;4.25;;;6.50;49.40;;;;;;5046033;28;20467;-65
2022/01/31 04:08:39;;;;;;;21.00;4.00;;;6.50;49.70;;;;;;5044167;28;20033;-65
2022/01/31 04:11:05;;;;;;;18.48;4.07;;;6.50;50.00;;;;;;5048227;28;20030;-65
2022/01/31 04:13:31;;;;;;;16.65;3.50;;;6.60;50.60;;;;;;5045988;28;20029;-64
2022/01/31 04:15:56;;;;;;;19.92;3.97;;;6.60;51.00;;;;;;5044183;28;20029;-64
2022/01/31 04:18:22;;;;;;;16.63;3.90;;;6.50;51.30;;;;;;5045555;28;20025;-64
2022/01/31 04:20:48;;;;;;;19.75;3.60;;;6.50;51.80;;;;;;5037198;28;20416;-64
2022/01/31 04:23:16;;;;;;;19.05;3.90;;;6.50;51.80;;;;;;5047814;28;20037;-65
2022/01/31 04:28:41;;;;;;;21.52;4.28;;;6.50;52.10;;;;;;5048612;28;20036;-66
2022/01/31 04:33:37;;;;;;;14.32;3.42;;;6.50;52.60;;;;;;5046423;28;20033;-65
2022/01/31 04:36:03;;;;;;;16.98;4.63;;;6.50;52.90;;;;;;5045968;28;20021;-64
2022/01/31 04:38:29;;;;;;;16.58;3.78;;;6.50;53.10;;;;;;5025442;28;20053;-65
2022/01/31 04:40:55;;;;;;;18.05;4.03;;;6.50;53.20;;;;;;5027135;28;20044;-65
2022/01/31 04:43:21;;;;;;;12.10;3.33;;;6.50;53.50;;;;;;5026816;28;20036;-65
2022/01/31 04:45:48;;;;;;;15.85;3.75;;;6.40;53.80;;;;;;5028443;28;20037;-65
2022/01/31 04:48:15;;;;;;;13.68;3.63;;;6.40;54.00;;;;;;5027370;28;20421;-65
2022/01/31 04:50:41;;;;;;;20.15;3.90;;;6.50;54.10;;;;;;5025462;28;20407;-64
2022/01/31 04:53:07;;;;;;;16.95;4.10;;;6.50;54.20;;;;;;5020095;28;20022;-64
2022/01/31 04:55:34;;;;;;;20.25;4.30;;;6.50;54.10;;;;;;5024603;28;20029;-64
2022/01/31 04:58:00;;;;;;;15.60;3.40;;;6.50;54.50;;;;;;5027402;28;20022;-63
2022/01/31 05:00:25;;;;;;;15.60;3.55;;;6.50;54.30;;;;;;5024220;28;20293;-63
2022/01/31 05:02:51;;;;;;;14.82;3.78;;;6.50;54.50;;;;;;5028525;28;20030;-64
2022/01/31 05:05:17;;;;;;;12.73;3.50;;;6.60;54.50;;;;;;5027325;28;20028;-64
2022/01/31 05:07:43;;;;;;;15.38;3.72;;;6.60;54.60;;;;;;5024878;28;20030;-64
2022/01/31 05:10:09;;;;;;;15.90;4.43;;;6.70;54.40;;;;;;5018441;28;20055;-66
2022/01/31 05:12:35;;;;;;;16.00;3.40;;;6.70;54.40;;;;;;5027568;28;20284;-64
2022/01/31 05:15:19;;;;;;;20.42;4.20;;;6.70;54.50;;;;;;5019755;28;20022;-65
2022/01/31 05:17:45;;;;;;;17.08;3.50;;;6.70;54.70;;;;;;5028301;28;20090;-66
2022/01/31 05:20:11;;;;;;;17.80;3.67;;;6.70;54.60;;;;;;5053389;28;20037;-63
2022/01/31 05:22:36;;;;;;;10.85;3.22;;;6.70;54.60;;;;;;5027381;28;20076;-63
2022/01/31 05:25:02;;;;;;;15.60;3.63;;;6.70;54.60;;;;;;5016474;28;20498;-63
2022/01/31 05:27:29;;;;;;;11.30;2.75;;;6.70;54.70;;;;;;5011393;28;20215;-64
2022/01/31 05:29:54;;;;;;;19.50;3.58;;;6.70;54.70;;;;;;5022253;28;20097;-64
2022/01/31 05:32:20;;;;;;;17.00;3.40;;;6.70;54.80;;;;;;5021097;28;20105;-64
2022/01/31 05:34:46;;;;;;;12.63;3.45;;;6.60;54.70;;;;;;5028217;28;20067;-65
2022/01/31 05:37:12;;;;;;;12.55;3.53;;;6.60;54.80;;;;;;5027102;28;20022;-65
2022/01/31 05:39:39;;;;;;;18.60;3.67;;;6.60;54.90;;;;;;5021228;28;20049;-66
2022/01/31 05:42:05;;;;;;;22.08;3.75;;;6.60;54.80;;;;;;5026851;28;20086;-65
2022/01/31 05:44:30;;;;;;;13.52;3.85;;;6.50;54.80;;;;;;5022605;28;20045;-65
2022/01/31 05:46:57;;;;;;;20.13;4.45;;;6.50;54.90;;;;;;5023962;28;20101;-64
2022/01/31 05:49:23;;;;;;;14.63;3.50;;;6.50;55.00;;;;;;5030465;28;20379;-64
2022/01/31 05:51:51;;;;;;;17.98;4.32;;;6.50;54.90;;;;;;5027205;28;20034;-65
2022/01/31 05:54:17;;;;;;;19.73;3.97;;;6.60;54.90;;;;;;5031044;28;20029;-64
2022/01/31 05:56:43;;;;;;;20.90;4.15;;;6.60;54.80;;;;;;5030043;28;20717;-64
2022/01/31 05:59:09;;;;;;;15.65;3.72;;;6.70;54.70;;;;;;5029299;28;20036;-64
2022/01/31 06:01:38;;;;;;;19.40;4.13;;;6.70;54.60;;;;;;5025290;28;21488;-63
2022/01/31 06:04:07;;;;;;;16.30;3.90;;;6.70;54.50;;;;;;5030055;28;20054;-65
2022/01/31 06:06:33;;;;;;;17.00;3.80;;;6.70;54.40;;;;;;5030523;28;20030;-64
2022/01/31 06:08:59;;;;;;;15.02;3.80;;;6.60;54.30;;;;;;5030897;28;20131;-63
2022/01/31 06:11:25;;;;;;;15.50;4.72;;;6.70;54.40;;;;;;5018775;28;20026;-66
2022/01/31 06:13:52;;;;;;;19.27;4.72;;;6.60;54.40;;;;;;5023645;28;20034;-65
2022/01/31 06:16:18;;;;;;;16.02;4.60;;;6.70;54.40;;;;;;5027321;28;20054;-68
2022/01/31 06:18:44;;;;;;;19.75;5.43;;;6.70;54.40;;;;;;5031467;28;20029;-74
2022/01/31 06:21:12;;;;;;;15.95;3.88;;;6.70;54.50;;;;;;5028783;28;20367;-65
2022/01/31 06:23:38;;;;;;;22.02;4.53;;;6.70;54.50;;;;;;5016686;28;20064;-64
2022/01/31 06:26:04;;;;;;;14.90;3.28;;;6.70;54.30;;;;;;5031883;28;20033;-65
2022/01/31 06:28:30;;;;;;;15.25;3.70;;;6.80;54.30;;;;;;5029507;28;20033;-65
2022/01/31 06:30:56;;;;;;;13.45;3.25;;;6.90;54.10;;;;;;5023945;28;20117;-70
2022/01/31 06:33:21;;;;;;;17.10;3.28;;;6.90;53.80;;;;;;5018833;28;20053;-69
2022/01/31 06:35:47;;;;;;;17.88;3.83;;;6.90;53.60;;;;;;5028615;28;20033;-68
2022/01/31 06:38:13;;;;;;;19.08;3.25;;;6.90;53.50;;;;;;5040815;27;20058;-69
2022/01/31 06:40:40;;;;;;;19.48;3.80;;;7.00;53.60;;;;;;5135633;27;20031;-68
2022/01/31 06:43:05;;;;;;;16.70;3.85;;;6.90;53.40;;;;;;5135472;27;20101;-68
2022/01/31 06:45:31;;;;;;;18.00;3.65;;;7.00;53.60;;;;;;5132907;27;20492;-68
2022/01/31 06:47:57;;;;;;;21.27;4.38;;;7.00;53.50;;;;;;5116169;27;20477;-69
2022/01/31 06:50:23;;;;;;;21.05;4.00;;;7.00;53.50;;;;;;5132768;27;20397;-70
2022/01/31 06:52:53;;;;;;;41.20;4.53;;;7.00;53.40;;;;;;5133431;27;20019;-70
2022/01/31 06:55:20;;;;;;;15.57;3.63;;;7.10;53.30;;;;;;5134319;27;20015;-74
2022/01/31 06:57:51;;;;;;;21.17;4.10;;;7.10;53.20;;;;;;5121051;27;20122;-68
2022/01/31 07:00:18;;;;;;;21.10;4.60;;;7.10;53.20;;;;;;5113901;27;20042;-70
2022/01/31 07:02:45;;;;;;;29.23;5.18;;;7.10;53.10;;;;;;5129724;27;20477;-69
2022/01/31 07:05:13;;;;;;;23.88;4.43;;;7.10;53.10;;;;;;5122352;27;20462;-69
2022/01/31 07:07:39;;;;;;;15.80;4.07;;;7.10;53.00;;;;;;5133737;27;20015;-71
2022/01/31 07:10:05;;;;;;;20.00;3.70;;;7.20;52.90;;;;;;5134994;27;20031;-68
2022/01/31 07:12:35;;;;;;;18.48;3.92;;;7.20;52.70;;;;;;5127355;27;20488;-69
2022/01/31 07:15:02;;;;;;;19.38;4.32;;;7.10;52.80;;;;;;5127474;27;20024;-70
2022/01/31 07:17:27;;;;;;;15.65;4.00;;;7.10;52.80;;;;;;5134021;27;20030;-70
2022/01/31 07:19:54;;;;;;;20.02;3.70;;;7.10;52.90;;;;;;5128344;27;20027;-69
2022/01/31 07:22:25;;;;;;;26.40;4.43;;;7.20;52.90;;;;;;5127360;27;20031;-68
2022/01/31 07:25:01;;;;;;;18.50;3.70;;;7.10;52.90;;;;;;5134273;27;20022;-68
2022/01/31 07:27:27;;;;;;;22.25;4.47;;;7.10;52.90;;;;;;5134192;27;20440;-70
2022/01/31 07:29:53;;;;;;;19.77;4.20;;;7.10;53.00;;;;;;5133450;27;20115;-69
2022/01/31 07:32:19;;;;;;;22.00;4.50;;;7.20;53.10;;;;;;5104595;28;20023;-71
2022/01/31 07:34:52;;;;;;;17.20;4.25;;;7.30;53.40;;;;;;5131821;27;20061;-69
2022/01/31 07:37:19;;;;;;;26.77;5.22;;;7.50;52.60;;;;;;5097669;28;20038;-73
2022/01/31 07:39:46;;;;;;;20.33;4.43;;;7.60;52.20;;;;;;5063196;27;20049;-71
2022/01/31 07:42:12;;;;;;;19.42;5.03;;;7.70;51.70;;;;;;5042703;28;21119;-70
2022/01/31 07:44:38;;;;;;;18.90;3.95;;;7.60;51.70;;;;;;5036527;28;20079;-69
2022/01/31 07:47:05;;;;;;;21.60;4.32;;;7.60;51.90;;;;;;5022481;28;20053;-69
2022/01/31 07:49:31;;;;;;;18.67;4.47;;;7.60;52.20;;;;;;5035860;28;20128;-70
2022/01/31 07:51:58;;;;;;;17.77;3.95;;;7.70;52.10;;;;;;5040353;28;20121;-70
2022/01/31 07:54:24;;;;;;;16.80;4.20;;;7.80;51.80;;;;;;5038409;28;20034;-69
2022/01/31 07:56:50;;;;;;;19.95;5.32;;;7.80;51.50;;;;;;5022206;28;20365;-69
2022/01/31 07:59:16;;;;;;;20.27;4.43;;;7.80;51.70;;;;;;5034429;28;20042;-69
2022/01/31 08:01:42;;;;;;;20.48;5.00;;;7.80;51.60;;;;;;5033213;28;20025;-68
2022/01/31 08:04:07;;;;;;;21.65;4.32;;;7.80;51.60;;;;;;5046801;28;20463;-70
2022/01/31 08:06:33;;;;;;;20.83;4.35;;;7.80;51.60;;;;;;5047049;28;20478;-70
2022/01/31 08:08:59;;;;;;;17.17;4.40;;;7.80;51.40;;;;;;5028821;28;20127;-70
2022/01/31 08:11:31;;;;;;;19.33;4.30;;;7.70;51.60;;;;;;5041572;28;20032;-69
2022/01/31 08:14:00;;;;;;;22.77;5.05;;;7.80;51.70;;;;;;5049230;28;20114;-70
2022/01/31 08:16:26;;;;;;;16.80;4.78;;;7.80;51.40;;;;;;5026018;28;20032;-69
2022/01/31 08:18:52;;;;;;;17.92;4.30;;;7.80;51.50;;;;;;5049458;28;20041;-69
2022/01/31 08:21:20;;;;;;;16.65;4.30;;;7.80;51.60;;;;;;5039686;28;20021;-69
2022/01/31 08:23:46;;;;;;;19.50;4.78;;;7.70;51.50;;;;;;5030433;28;20044;-72
2022/01/31 08:26:16;;;;;;;18.77;4.55;;;7.70;51.60;;;;;;5030415;28;20024;-70
2022/01/31 08:28:56;;;;;;;21.60;5.30;;;7.70;51.70;;;;;;5047552;28;20124;-70
2022/01/31 08:36:34;;;;;;;18.38;5.20;;;7.70;51.80;;;;;;5049649;28;20180;-70
2022/01/31 08:39:21;;;;;;;24.00;5.20;;;7.80;51.70;;;;;;5006126;28;20053;-71
2022/01/31 08:41:51;;;;;;;14.52;4.90;;;7.80;51.60;;;;;;5023512;28;20052;-68
2022/01/31 08:44:19;;;;;;;14.75;4.40;;;7.80;51.50;;;;;;5023218;28;20026;-71
2022/01/31 08:46:48;;;;;;;17.40;5.40;;;7.80;51.50;;;;;;5015917;28;20116;-70
2022/01/31 08:49:15;;;;;;;22.70;6.45;;;7.70;51.50;;;;;;5014838;28;20065;-70
2022/01/31 08:51:42;;;;;;;18.58;5.65;;;7.70;51.80;;;;;;5020141;28;20037;-70
2022/01/31 08:54:09;;;;;;;27.85;5.75;;;7.60;52.10;;;;;;5024258;28;20017;-73
2022/01/31 08:56:40;;;;;;;17.15;5.47;;;7.60;52.10;;;;;;5019423;28;20433;-72
2022/01/31 08:59:16;;;;;;;20.88;5.70;;;7.60;52.30;;;;;;5013322;28;20174;-71
2022/01/31 09:01:52;;;;;;;20.65;5.55;;;7.50;52.60;;;;;;5016114;28;20017;-74
2022/01/31 09:04:47;;;;;;;23.23;5.13;;;7.40;52.60;;;;;;5025722;28;20021;-70
2022/01/31 09:07:18;;;;;;;19.75;4.95;;;7.50;52.70;;;;;;5025174;28;20018;-68
2022/01/31 09:09:47;;;;;;;15.85;4.63;;;7.40;52.60;;;;;;5027350;28;20366;-69
2022/01/31 09:12:16;;;;;;;21.95;5.50;;;7.40;52.60;;;;;;5028464;28;20074;-69
2022/01/31 09:14:42;;;;;;;22.55;5.07;;;7.40;52.70;;;;;;5028638;27;20033;-69
2022/01/31 09:17:07;;;;;;;18.88;4.85;;;7.50;52.60;;;;;;5047529;27;20026;-69
2022/01/31 09:19:33;;;;;;;18.80;5.28;;;7.40;52.50;;;;;;5025874;28;20506;-69
2022/01/31 09:22:01;;;;;;;17.10;5.85;;;7.50;52.50;;;;;;5026252;28;20516;-69
2022/01/31 09:24:27;;;;;;;25.83;5.97;;;7.50;52.50;;;;;;5023606;28;20041;-70
2022/01/31 09:26:53;;;;;;;25.67;5.30;;;7.40;52.60;;;;;;5026268;28;20113;-69
2022/01/31 09:29:19;;;;;;;21.25;5.47;;;7.40;52.80;;;;;;5024300;28;20121;-67
2022/01/31 09:31:45;;;;;;;19.88;5.03;;;7.30;52.90;;;;;;5008928;28;20018;-69
2022/01/31 09:34:11;;;;;;;22.10;5.30;;;7.30;52.90;;;;;;5005516;28;20029;-69
2022/01/31 09:36:37;;;;;;;24.30;5.13;;;7.30;53.00;;;;;;5020050;28;20048;-74
2022/01/31 09:39:03;;;;;;;25.33;5.38;;;7.30;53.10;;;;;;5030510;28;20132;-70
2022/01/31 09:41:34;;;;;;;22.67;4.97;;;7.30;53.20;;;;;;5043610;27;20045;-69
2022/01/31 09:44:45;;;;;;;24.05;5.90;;;7.30;53.20;;;;;;5025481;28;20025;-71
2022/01/31 09:49:43;;;;;;;24.23;5.45;;;7.40;53.20;;;;;;5035483;28;20034;-69
2022/01/31 09:52:09;;;;;;;21.83;5.57;;;7.40;53.30;;;;;;5021117;28;20025;-69
2022/01/31 09:54:35;;;;;;;21.30;5.63;;;7.40;53.70;;;;;;5018472;28;20051;-70
2022/01/31 09:57:01;;;;;;;19.40;5.15;;;7.40;53.60;;;;;;5036358;28;20439;-72
2022/01/31 09:59:27;;;;;;;18.33;5.60;;;7.40;53.60;;;;;;5021592;28;20042;-72
2022/01/31 10:01:55;;;;;;;20.38;5.32;;;7.40;53.60;;;;;;5039869;27;20352;-71
2022/01/31 10:04:23;;;;;;;17.02;4.72;;;7.40;53.50;;;;;;5045729;28;20173;-69
2022/01/31 10:06:54;;;;;;;22.55;6.10;;;7.50;53.50;;;;;;5046983;28;20033;-70
2022/01/31 10:09:29;;;;;;;23.73;6.28;;;7.50;53.40;;;;;;5039460;28;20037;-70
2022/01/31 10:12:12;;;;;;;23.70;9.23;;;7.50;53.40;;;;;;5032237;28;20025;-70
2022/01/31 10:17:33;;;;;;;27.65;7.57;;;7.70;53.20;;;;;;5032420;27;20028;-71
2022/01/31 10:20:04;;;;;;;21.33;5.32;;;7.70;52.90;;;;;;5018677;28;20069;-71
2022/01/31 10:22:34;;;;;;;19.95;4.65;;;7.60;52.70;;;;;;5016008;28;20602;-69
2022/01/31 10:25:06;;;;;;;19.05;5.75;;;7.60;52.80;;;;;;5018766;28;20085;-70
2022/01/31 10:27:34;;;;;;;22.90;5.30;;;7.50;52.70;;;;;;5043379;28;20021;-68
2022/01/31 10:30:11;;;;;;;17.42;5.32;;;7.50;53.00;;;;;;5046245;28;20028;-69
2022/01/31 10:32:40;;;;;;;23.77;6.43;;;7.50;53.00;;;;;;5041990;28;20044;-69
2022/01/31 10:35:10;;;;;;;25.13;6.80;;;7.60;53.00;;;;;;5035336;28;20475;-69
2022/01/31 10:37:39;;;;;;;23.33;6.10;;;7.60;53.00;;;;;;5029557;28;20478;-70
2022/01/31 10:43:38;;;;;;;24.75;5.97;;;7.80;52.80;;;;;;5069542;28;20065;-71
2022/01/31 10:46:21;;;;;;;19.27;5.97;;;7.90;52.30;;;;;;5035485;28;20064;-68
2022/01/31 10:56:54;;;;;;;16.02;4.40;;;8.10;52.60;;;;;;5039481;28;20033;-72
2022/01/31 10:59:27;;;;;;;13.75;4.07;;;8.20;52.50;;;;;;5044494;28;20110;-70
2022/01/31 11:01:55;;;;;;;14.38;3.83;;;8.30;52.60;;;;;;5045294;28;20085;-68
2022/01/31 11:04:22;;;;;;;16.15;4.20;;;8.30;52.60;;;;;;5016392;28;20037;-68
2022/01/31 11:06:56;;;;;;;13.70;3.85;;;8.30;52.60;;;;;;5018826;28;20127;-70
2022/01/31 11:09:22;;;;;;;15.02;4.65;;;8.30;52.80;;;;;;5042215;28;20047;-72
2022/01/31 11:11:49;;;;;;;15.82;4.30;;;8.40;52.70;;;;;;5040983;28;20041;-69
2022/01/31 11:14:16;;;;;;;16.80;3.92;;;8.50;52.80;;;;;;5044746;28;20435;-71
2022/01/31 11:16:44;;;;;;;22.23;4.60;;;8.60;52.40;;;;;;5040309;28;20026;-71
2022/01/31 11:19:12;;;;;;;13.93;4.05;;;8.70;52.30;;;;;;5039251;27;20439;-70
2022/01/31 11:21:45;;;;;;;15.98;4.40;;;8.60;52.20;;;;;;5064154;27;20022;-71
2022/01/31 11:24:22;;;;;;;14.80;3.85;;;8.60;52.50;;;;;;5040122;28;20036;-70
2022/01/31 11:26:50;;;;;;;13.40;3.80;;;8.60;52.40;;;;;;5045631;28;20033;-71
2022/01/31 11:29:18;;;;;;;15.95;4.25;;;8.70;52.50;;;;;;5047807;28;20025;-70
2022/01/31 11:31:45;;;;;;;15.73;3.95;;;8.70;52.30;;;;;;5029363;28;20116;-70
2022/01/31 11:34:11;;;;;;;16.88;5.28;;;8.70;52.20;;;;;;5043900;28;20036;-70
2022/01/31 11:36:39;;;;;;;16.10;4.97;;;8.80;52.40;;;;;;5025167;28;20029;-69
2022/01/31 11:39:13;;;;;;;12.00;4.70;;;8.80;52.20;;;;;;5016897;28;20045;-70
2022/01/31 11:41:47;;;;;;;14.75;4.60;;;8.70;52.50;;;;;;5039467;28;20208;-71
2022/01/31 11:44:41;;;;;;;15.77;4.10;;;8.80;52.60;;;;;;5042418;28;20033;-72
2022/01/31 11:47:08;;;;;;;13.45;4.32;;;9.00;52.40;;;;;;5046829;28;20514;-70
2022/01/31 11:50:02;;;;;;;20.40;5.78;;;9.00;52.20;;;;;;5030285;28;20033;-74
2022/01/31 11:52:32;;;;;;;;;;;9.10;52.20;;;;;;5028478;28;20428;-71
2022/01/31 11:55:08;;;;;;;11.85;3.88;;;9.20;51.90;;;;;;5038820;27;19909;-71
2022/01/31 11:57:34;;;;;;;14.68;4.10;;;9.30;52.00;;;;;;5022407;28;20036;-72
2022/01/31 12:00:05;;;;;;;15.15;4.82;;;9.60;51.70;;;;;;5023086;28;20030;-71
2022/01/31 12:02:39;;;;;;;12.45;4.10;;;9.80;51.30;;;;;;5038386;28;20064;-69
2022/01/31 12:05:14;;;;;;;16.80;5.18;;;10.10;50.70;;;;;;5027780;28;20102;-71
2022/01/31 12:07:42;;;;;;;12.38;4.05;;;10.40;50.40;;;;;;5035881;28;20331;-70
2022/01/31 12:10:34;;;;;;;14.85;5.03;;;10.60;49.70;;;;;;5034737;28;20036;-69
2022/01/31 12:22:00;;;;;;;14.35;3.97;;;10.70;49.00;;;;;;5048206;28;20030;-70
2022/01/31 12:24:07;;;;;;;12.45;3.65;;;10.60;49.40;;;;;;5040574;28;20448;-70
2022/01/31 12:26:32;;;;;;;11.90;3.65;;;10.50;50.10;;;;;;5019362;28;20028;-68
2022/01/31 12:29:09;;;;;;;14.50;5.03;;;10.40;50.80;;;;;;5032199;28;20033;-71
2022/01/31 12:31:34;;;;;;;9.43;3.83;;;10.40;51.30;;;;;;5039063;28;20033;-71
2022/01/31 12:34:02;;;;;;;9.98;3.50;;;10.40;51.70;;;;;;5039478;28;20088;-71
2022/01/31 12:36:46;;;;;;;10.63;3.50;;;10.30;52.80;;;;;;5042637;28;20032;-70
2022/01/31 12:42:03;;;;;;;10.23;3.25;;;9.90;54.30;;;;;;5034910;28;20113;-71
2022/01/31 12:44:32;;;;;;;11.50;4.27;;;9.90;54.60;;;;;;5027741;28;20030;-72
2022/01/31 12:47:17;;;;;;;6.03;2.30;;;9.90;55.00;;;;;;5028773;28;20033;-70
2022/01/31 12:49:43;;;;;;;7.88;2.83;;;9.80;56.80;;;;;;5030949;28;20041;-72
2022/01/31 12:52:11;;;;;;;6.18;2.40;;;9.70;57.20;;;;;;5036066;28;20029;-73
2022/01/31 12:54:38;;;;;;;6.13;2.30;;;9.60;57.40;;;;;;5024570;28;20021;-70
2022/01/31 12:57:11;;;;;;;5.35;2.47;;;9.60;58.30;;;;;;5040049;27;20510;-72
2022/01/31 12:59:39;;;;;;;4.40;2.50;;;9.40;58.70;;;;;;5040144;28;20037;-70
2022/01/31 13:02:10;;;;;;;6.50;2.20;;;9.40;58.90;;;;;;5034521;28;20101;-71
2022/01/31 13:04:37;;;;;;;7.45;2.40;;;9.40;59.30;;;;;;5046237;27;20152;-72
2022/01/31 13:07:05;;;;;;;5.68;2.30;;;9.40;59.70;;;;;;5067933;27;20030;-70
2022/01/31 13:09:38;;;;;;;4.25;1.90;;;9.40;60.20;;;;;;5046115;28;20033;-73
2022/01/31 13:12:07;;;;;;;8.97;2.90;;;9.30;60.00;;;;;;5043509;28;20403;-70
2022/01/31 13:14:35;;;;;;;8.88;2.97;;;9.40;60.40;;;;;;5045408;28;20348;-71
2022/01/31 13:17:14;;;;;;;9.18;4.15;;;9.40;60.30;;;;;;5045435;28;20029;-71
2022/01/31 13:19:42;;;;;;;6.18;2.17;;;9.40;61.00;;;;;;5045266;28;20045;-70
2022/01/31 13:22:39;;;;;;;4.50;2.13;;;9.40;60.70;;;;;;5027895;28;20025;-71
2022/01/31 13:25:12;;;;;;;4.75;1.88;;;9.30;61.80;;;;;;5019889;28;20116;-71
2022/01/31 13:27:41;;;;;;;8.07;1.63;;;9.20;62.70;;;;;;5021210;28;20047;-70
2022/01/31 13:30:15;;;;;;;5.13;2.65;;;9.10;63.40;;;;;;5026517;28;20124;-71
2022/01/31 13:32:40;;;;;;;9.90;2.35;;;9.10;63.50;;;;;;5044367;28;20104;-73
2022/01/31 13:35:12;;;;;;;5.57;1.88;;;9.10;63.30;;;;;;5046382;28;20036;-73